createdAt,value
2022-09-24T00:01:34.503Z,6.42
2022-09-24T00:04:05.033Z,6.45
2022-09-24T00:06:38.665Z,6.43
2022-09-24T00:09:05.441Z,6.48
2022-09-24T00:11:32.746Z,6.48
2022-09-24T00:14:00.286Z,6.47
2022-09-24T00:16:30.604Z,6.45
2022-09-24T00:18:58.875Z,6.62
2022-09-24T00:21:28.376Z,6.59
2022-09-24T00:24:00.369Z,6.45
2022-09-24T00:26:46.186Z,6.53
2022-09-24T00:29:16.462Z,6.53
2022-09-24T00:31:43.410Z,6.50
2022-09-24T00:34:10.571Z,6.51
2022-09-24T00:36:37.644Z,6.44
2022-09-24T00:39:05.334Z,6.38
2022-09-24T00:41:35.248Z,6.45
2022-09-24T00:44:02.344Z,6.50
2022-09-24T00:46:39.575Z,6.47
2022-09-24T00:49:12.746Z,6.39
2022-09-24T00:51:40.004Z,6.41
2022-09-24T00:54:13.613Z,6.44
2022-09-24T00:56:41.252Z,6.45
2022-09-24T00:59:11.618Z,6.45
2022-09-24T01:01:38.337Z,6.31
2022-09-24T01:04:06.459Z,6.31
2022-09-24T01:06:33.826Z,6.40
2022-09-24T01:09:00.776Z,6.47
2022-09-24T01:11:36.634Z,6.38
2022-09-24T01:14:34.024Z,6.31
2022-09-24T01:17:19.038Z,6.39
2022-09-24T01:20:11.316Z,6.29
2022-09-24T01:22:41.004Z,6.24
2022-09-24T01:25:38.467Z,6.31
2022-09-24T01:28:20.321Z,6.25
2022-09-24T01:30:49.766Z,6.30
2022-09-24T01:33:20.670Z,6.37
2022-09-24T01:35:57.206Z,6.38
2022-09-24T01:38:27.007Z,6.29
2022-09-24T01:40:54.750Z,6.31
2022-09-24T01:43:23.946Z,6.22
2022-09-24T01:45:51.364Z,6.19
2022-09-24T01:48:21.316Z,6.21
2022-09-24T01:51:09.496Z,6.15
2022-09-24T01:53:47.739Z,6.14
2022-09-24T01:56:18.968Z,6.18
2022-09-24T01:58:50.396Z,6.16
2022-09-24T02:01:29.249Z,6.14
2022-09-24T02:04:03.696Z,6.18
2022-09-24T02:06:38.037Z,6.17
2022-09-24T02:09:05.033Z,6.10
2022-09-24T02:11:33.418Z,6.18
2022-09-24T02:14:10.799Z,6.21
2022-09-24T02:16:48.098Z,6.23
2022-09-24T02:19:19.409Z,6.21
2022-09-24T02:21:46.774Z,6.18
2022-09-24T02:24:17.056Z,6.15
2022-09-24T02:26:43.752Z,6.14
2022-09-24T02:29:10.644Z,6.21
2022-09-24T02:31:48.656Z,6.15
2022-09-24T02:34:22.125Z,6.14
2022-09-24T02:36:50.885Z,6.18
2022-09-24T02:39:18.224Z,6.24
2022-09-24T02:41:48.814Z,6.30
2022-09-24T02:44:16.686Z,6.28
2022-09-24T02:46:44.665Z,6.29
2022-09-24T02:49:12.286Z,6.25
2022-09-24T02:51:39.178Z,6.32
2022-09-24T02:54:06.505Z,6.27
2022-09-24T02:56:33.587Z,6.26
2022-09-24T02:59:02.875Z,6.24
2022-09-24T03:01:30.378Z,6.22
2022-09-24T03:03:57.618Z,6.11
2022-09-24T03:06:27.437Z,6.12
2022-09-24T03:08:54.524Z,6.16
2022-09-24T03:11:22.396Z,6.21
2022-09-24T03:13:49.947Z,6.16
2022-09-24T03:16:17.856Z,6.20
2022-09-24T03:18:46.784Z,6.26
2022-09-24T03:21:15.404Z,6.20
2022-09-24T03:23:42.106Z,6.07
2022-09-24T03:26:09.321Z,6.11
2022-09-24T03:28:36.258Z,6.17
2022-09-24T03:31:03.357Z,6.17
2022-09-24T03:33:37.976Z,6.14
2022-09-24T03:36:12.251Z,6.13
2022-09-24T03:38:40.666Z,6.16
2022-09-24T03:41:08.224Z,6.04
2022-09-24T03:43:35.477Z,5.96
2022-09-24T03:46:03.028Z,5.92
2022-09-24T03:48:32.516Z,6.00
2022-09-24T03:51:11.116Z,5.93
2022-09-24T03:53:38.604Z,5.97
2022-09-24T03:56:06.447Z,5.98
2022-09-24T03:58:38.073Z,5.97
2022-09-24T04:01:09.597Z,6.05
2022-09-24T04:03:36.784Z,6.04
2022-09-24T04:06:04.625Z,6.03
2022-09-24T04:08:31.795Z,6.01
2022-09-24T04:10:59.028Z,6.01
2022-09-24T04:13:25.946Z,5.97
2022-09-24T04:15:53.802Z,6.01
2022-09-24T04:18:21.147Z,5.97
2022-09-24T04:20:47.906Z,5.94
2022-09-24T04:23:14.693Z,5.99
2022-09-24T04:25:41.478Z,5.96
2022-09-24T04:28:09.272Z,5.93
2022-09-24T04:30:36.785Z,5.87
2022-09-24T04:33:03.489Z,5.88
2022-09-24T04:35:32.227Z,5.98
2022-09-24T04:37:59.530Z,6.01
2022-09-24T04:40:27.085Z,6.01
2022-09-24T04:42:54.173Z,5.98
2022-09-24T04:45:21.746Z,5.93
2022-09-24T04:47:58.706Z,6.00
2022-09-24T04:50:27.424Z,5.99
2022-09-24T04:52:54.882Z,6.00
2022-09-24T04:55:22.344Z,5.98
2022-09-24T04:57:49.290Z,6.01
2022-09-24T05:00:18.478Z,5.98
2022-09-24T05:02:45.601Z,5.97
2022-09-24T05:05:13.363Z,6.00
2022-09-24T05:07:41.135Z,5.97
2022-09-24T05:10:08.173Z,5.91
2022-09-24T05:12:36.517Z,5.93
2022-09-24T05:15:04.373Z,5.94
2022-09-24T05:17:31.196Z,5.87
2022-09-24T05:20:01.531Z,5.78
2022-09-24T05:22:28.171Z,5.72
2022-09-24T05:24:54.734Z,5.77
2022-09-24T05:27:23.266Z,5.79
2022-09-24T05:29:50.453Z,5.87
2022-09-24T05:32:19.086Z,5.89
2022-09-24T05:34:46.655Z,5.95
2022-09-24T05:37:14.247Z,5.97
2022-09-24T05:39:40.860Z,5.94
2022-09-24T05:42:10.296Z,5.98
2022-09-24T05:44:37.380Z,5.92
2022-09-24T05:47:04.108Z,6.28
2022-09-24T05:49:30.736Z,6.64
2022-09-24T05:51:57.539Z,6.62
2022-09-24T05:54:24.207Z,6.43
2022-09-24T05:56:51.002Z,6.41
2022-09-24T05:59:17.774Z,6.66
2022-09-24T06:01:45.171Z,6.78
2022-09-24T06:04:12.812Z,6.96
2022-09-24T06:06:39.571Z,6.93
2022-09-24T06:09:06.444Z,7.23
2022-09-24T06:11:40.071Z,7.44
2022-09-24T06:14:08.854Z,7.46
2022-09-24T06:16:36.298Z,7.65
2022-09-24T06:19:03.156Z,7.54
2022-09-24T06:21:29.940Z,7.59
2022-09-24T06:23:56.527Z,7.48
2022-09-24T06:26:23.262Z,7.55
2022-09-24T06:28:50.030Z,7.77
2022-09-24T06:31:17.015Z,7.83
2022-09-24T06:33:44.880Z,7.58
2022-09-24T06:36:11.534Z,7.52
2022-09-24T06:38:40.424Z,7.42
2022-09-24T06:41:07.276Z,7.80
2022-09-24T06:43:34.700Z,8.13
2022-09-24T06:46:02.074Z,8.30
2022-09-24T06:48:29.511Z,8.55
2022-09-24T06:50:56.594Z,8.78
2022-09-24T06:53:23.673Z,8.99
2022-09-24T06:55:50.638Z,9.31
2022-09-24T06:58:21.139Z,9.29
2022-09-24T07:00:59.486Z,9.37
2022-09-24T07:03:27.291Z,9.47
2022-09-24T07:05:54.620Z,9.43
2022-09-24T07:08:22.094Z,9.67
2022-09-24T07:10:52.641Z,9.69
2022-09-24T07:13:21.298Z,9.77
2022-09-24T07:15:52.915Z,9.58
2022-09-24T07:18:20.697Z,9.85
2022-09-24T07:20:56.128Z,10.05
2022-09-24T07:23:23.093Z,10.50
2022-09-24T07:25:51.335Z,10.44
2022-09-24T07:28:19.097Z,10.67
2022-09-24T07:30:46.001Z,10.69
2022-09-24T07:33:12.715Z,10.90
2022-09-24T07:35:40.109Z,11.02
2022-09-24T07:38:12.111Z,11.00
2022-09-24T07:40:39.434Z,10.95
2022-09-24T07:43:11.891Z,11.01
2022-09-24T07:45:38.867Z,11.04
2022-09-24T07:48:06.194Z,10.80
2022-09-24T07:50:35.399Z,11.25
2022-09-24T07:53:02.040Z,11.38
2022-09-24T07:55:28.869Z,11.93
2022-09-24T07:57:56.024Z,11.97
2022-09-24T08:00:24.272Z,12.24
2022-09-24T08:02:53.296Z,12.25
2022-09-24T08:05:20.030Z,12.49
2022-09-24T08:07:54.553Z,12.34
2022-09-24T08:10:21.722Z,12.38
2022-09-24T08:12:48.472Z,12.43
2022-09-24T08:15:15.770Z,11.75
2022-09-24T08:17:42.906Z,11.83
2022-09-24T08:20:10.204Z,11.92
2022-09-24T08:22:37.000Z,11.75
2022-09-24T08:25:04.705Z,12.25
2022-09-24T08:27:33.070Z,12.38
2022-09-24T08:30:00.838Z,12.37
2022-09-24T08:32:29.567Z,12.00
2022-09-24T08:34:56.426Z,11.96
2022-09-24T08:37:23.126Z,12.05
2022-09-24T08:39:49.906Z,12.11
2022-09-24T08:42:42.316Z,12.10
2022-09-24T08:45:29.038Z,12.26
2022-09-24T08:48:00.600Z,12.08
2022-09-24T08:50:35.310Z,12.19
2022-09-24T08:53:27.388Z,11.98
2022-09-24T08:55:56.516Z,12.27
2022-09-24T08:58:25.579Z,12.47
2022-09-24T09:01:15.040Z,12.70
2022-09-24T09:04:05.449Z,12.64
2022-09-24T09:06:56.753Z,12.89
2022-09-24T09:09:38.483Z,12.68
2022-09-24T09:12:13.599Z,12.73
2022-09-24T09:14:52.425Z,12.97
2022-09-24T09:17:28.082Z,12.70
2022-09-24T09:19:57.938Z,12.76
2022-09-24T09:22:30.474Z,12.97
2022-09-24T09:25:15.758Z,13.26
2022-09-24T09:27:42.548Z,13.20
2022-09-24T09:30:14.450Z,13.47
2022-09-24T09:32:56.601Z,13.57
2022-09-24T09:35:30.868Z,13.13
2022-09-24T09:38:06.666Z,13.39
2022-09-24T09:40:41.925Z,13.78
2022-09-24T09:43:11.407Z,14.21
2022-09-24T09:45:57.038Z,13.98
2022-09-24T09:48:26.307Z,14.11
2022-09-24T09:50:57.938Z,14.32
2022-09-24T09:53:26.575Z,14.70
2022-09-24T09:55:57.772Z,14.77
2022-09-24T09:58:26.537Z,14.24
2022-09-24T10:00:53.920Z,14.76
2022-09-24T10:03:26.420Z,14.81
2022-09-24T10:05:58.628Z,15.13
2022-09-24T10:08:25.927Z,15.24
2022-09-24T10:11:03.424Z,15.31
2022-09-24T10:13:33.165Z,14.40
2022-09-24T10:16:03.993Z,15.32
2022-09-24T10:18:35.800Z,15.90
2022-09-24T10:21:06.950Z,16.15
2022-09-24T10:23:44.393Z,16.04
2022-09-24T10:26:11.380Z,16.46
2022-09-24T10:29:00.975Z,17.00
2022-09-24T10:31:30.793Z,17.11
2022-09-24T10:33:59.415Z,17.09
2022-09-24T10:36:32.611Z,16.64
2022-09-24T10:39:04.671Z,16.13
2022-09-24T10:41:32.135Z,16.67
2022-09-24T10:44:13.486Z,17.06
2022-09-24T10:46:46.990Z,17.08
2022-09-24T10:49:39.446Z,17.42
2022-09-24T10:52:51.174Z,17.81
2022-09-24T10:55:21.476Z,18.11
2022-09-24T10:57:57.160Z,17.81
2022-09-24T11:00:25.849Z,17.80
2022-09-24T11:03:40.375Z,17.84
2022-09-24T11:06:18.262Z,16.85
2022-09-24T11:08:50.405Z,17.07
2022-09-24T11:11:20.957Z,17.38
2022-09-24T11:13:59.836Z,17.30
2022-09-24T11:16:44.907Z,17.06
2022-09-24T11:19:31.818Z,17.16
2022-09-24T11:22:14.779Z,17.29
2022-09-24T11:25:04.679Z,17.47
2022-09-24T11:27:40.195Z,17.56
2022-09-24T11:30:21.548Z,17.70
2022-09-24T11:33:12.346Z,17.39
2022-09-24T11:36:00.935Z,17.21
2022-09-24T11:39:05.437Z,17.19
2022-09-24T11:41:53.108Z,17.09
2022-09-24T11:44:27.211Z,17.14
2022-09-24T11:47:00.466Z,16.94
2022-09-24T11:49:45.238Z,16.98
2022-09-24T11:52:15.946Z,17.04
2022-09-24T11:55:04.147Z,17.04
2022-09-24T11:57:46.689Z,16.96
2022-09-24T12:00:20.824Z,16.92
2022-09-24T12:02:51.078Z,16.89
2022-09-24T12:05:33.029Z,16.73
2022-09-24T12:08:27.874Z,16.74
2022-09-24T12:11:01.632Z,16.79
2022-09-24T12:13:32.082Z,16.85
2022-09-24T12:16:01.676Z,16.86
2022-09-24T12:18:45.216Z,16.89
2022-09-24T12:21:21.294Z,16.85
2022-09-24T12:23:49.443Z,16.82
2022-09-24T12:26:17.574Z,16.79
2022-09-24T12:29:12.087Z,16.75
2022-09-24T12:32:25.548Z,16.85
2022-09-24T12:35:02.619Z,16.85
2022-09-24T12:37:33.589Z,16.96
2022-09-24T12:40:25.228Z,17.03
2022-09-24T12:42:55.281Z,17.10
2022-09-24T12:45:22.681Z,16.96
2022-09-24T12:47:53.864Z,16.74
2022-09-24T12:50:28.780Z,16.60
2022-09-24T12:52:55.793Z,16.73
2022-09-24T12:55:25.647Z,16.81
2022-09-24T12:57:52.616Z,16.80
2022-09-24T13:00:41.928Z,16.96
2022-09-24T13:03:34.905Z,17.00
2022-09-24T13:06:02.052Z,17.13
2022-09-24T13:08:39.986Z,17.07
2022-09-24T13:11:36.680Z,17.08
2022-09-24T13:14:19.284Z,17.10
2022-09-24T13:16:51.464Z,17.07
2022-09-24T13:19:36.745Z,17.22
2022-09-24T13:22:03.865Z,17.13
2022-09-24T13:24:37.336Z,17.16
2022-09-24T13:27:24.335Z,17.12
2022-09-24T13:30:09.622Z,17.12
2022-09-24T13:32:46.655Z,17.09
2022-09-24T13:35:22.287Z,17.15
2022-09-24T13:38:07.017Z,17.00
2022-09-24T13:40:37.803Z,17.02
2022-09-24T13:43:14.443Z,17.08
2022-09-24T13:45:44.160Z,17.05
2022-09-24T13:48:36.790Z,16.99
2022-09-24T13:51:04.578Z,16.95
2022-09-24T13:53:41.063Z,16.94
2022-09-24T13:56:15.193Z,16.96
2022-09-24T13:58:43.191Z,16.80
2022-09-24T14:01:22.309Z,16.74
2022-09-24T14:03:57.639Z,16.71
2022-09-24T14:06:52.060Z,16.57
2022-09-24T14:09:33.095Z,16.51
2022-09-24T14:12:03.383Z,16.53
2022-09-24T14:14:34.488Z,16.55
2022-09-24T14:17:09.085Z,16.45
2022-09-24T14:19:36.266Z,16.36
2022-09-24T14:22:04.062Z,16.22
2022-09-24T14:24:55.610Z,16.09
2022-09-24T14:27:23.469Z,16.05
2022-09-24T14:29:58.781Z,15.93
2022-09-24T14:32:31.252Z,15.93
2022-09-24T14:35:00.303Z,15.79
2022-09-24T14:37:32.511Z,15.79
2022-09-24T14:40:05.411Z,15.80
2022-09-24T14:42:46.985Z,15.70
2022-09-24T14:45:40.606Z,15.59
2022-09-24T14:48:34.271Z,15.57
2022-09-24T14:51:01.174Z,15.51
2022-09-24T14:53:31.051Z,15.49
2022-09-24T14:55:57.888Z,15.45
2022-09-24T14:58:31.406Z,15.38
2022-09-24T15:01:00.626Z,15.32
2022-09-24T15:03:50.705Z,15.29
2022-09-24T15:06:25.214Z,15.20
2022-09-24T15:09:01.361Z,15.20
2022-09-24T15:11:31.399Z,15.18
2022-09-24T15:14:00.053Z,15.19
2022-09-24T15:16:30.597Z,15.16
2022-09-24T15:19:16.941Z,15.08
2022-09-24T15:21:45.198Z,15.06
2022-09-24T15:24:12.251Z,15.03
2022-09-24T15:26:42.202Z,14.99
2022-09-24T15:29:16.303Z,15.03
2022-09-24T15:31:42.976Z,15.00
2022-09-24T15:34:10.182Z,14.89
2022-09-24T15:36:37.173Z,14.91
2022-09-24T15:39:04.601Z,14.90
2022-09-24T15:41:31.313Z,14.81
2022-09-24T15:43:59.215Z,14.77
2022-09-24T15:46:26.747Z,14.82
2022-09-24T15:48:53.699Z,14.73
2022-09-24T15:51:22.968Z,14.58
2022-09-24T15:53:50.469Z,14.56
2022-09-24T15:56:17.334Z,14.52
2022-09-24T15:58:43.918Z,14.50
2022-09-24T16:01:17.065Z,14.50
2022-09-24T16:03:44.497Z,14.49
2022-09-24T16:06:12.354Z,14.46
2022-09-24T16:08:38.982Z,14.40
2022-09-24T16:11:08.988Z,14.37
2022-09-24T16:13:35.941Z,14.43
2022-09-24T16:16:05.432Z,14.42
2022-09-24T16:18:32.474Z,14.41
2022-09-24T16:20:59.064Z,14.38
2022-09-24T16:23:25.954Z,14.39
2022-09-24T16:25:58.191Z,14.33
2022-09-24T16:28:25.813Z,14.25
2022-09-24T16:30:53.009Z,14.21
2022-09-24T16:33:21.114Z,14.21
2022-09-24T16:35:47.921Z,14.20
2022-09-24T16:38:17.731Z,14.19
2022-09-24T16:40:48.494Z,14.13
2022-09-24T16:43:15.963Z,14.06
2022-09-24T16:45:42.651Z,14.03
2022-09-24T16:48:11.548Z,13.98
2022-09-24T16:50:39.826Z,13.94
2022-09-24T16:53:06.421Z,13.93
2022-09-24T16:55:33.105Z,13.97
2022-09-24T16:58:00.536Z,13.91
2022-09-24T17:00:27.442Z,13.90
2022-09-24T17:02:54.202Z,13.83
2022-09-24T17:05:20.893Z,13.79
2022-09-24T17:07:47.570Z,13.76
2022-09-24T17:10:15.556Z,13.68
2022-09-24T17:12:48.305Z,13.68
2022-09-24T17:15:16.941Z,13.68
2022-09-24T17:17:49.543Z,13.60
2022-09-24T17:20:17.133Z,13.62
2022-09-24T17:22:43.712Z,13.64
2022-09-24T17:25:10.487Z,13.59
2022-09-24T17:27:37.137Z,13.57
2022-09-24T17:30:05.504Z,13.54
2022-09-24T17:32:32.275Z,13.51
2022-09-24T17:34:59.069Z,13.52
2022-09-24T17:37:27.385Z,13.65
2022-09-24T17:39:54.065Z,13.50
2022-09-24T17:42:20.659Z,13.41
2022-09-24T17:44:47.342Z,13.39
2022-09-24T17:47:14.080Z,13.30
2022-09-24T17:49:40.682Z,13.25
2022-09-24T17:52:07.542Z,13.23
2022-09-24T17:54:34.700Z,13.18
2022-09-24T17:57:02.121Z,13.15
2022-09-24T17:59:28.811Z,13.16
2022-09-24T18:01:55.682Z,13.11
2022-09-24T18:04:22.445Z,13.08
2022-09-24T18:06:49.452Z,13.02
2022-09-24T18:09:17.290Z,13.03
2022-09-24T18:11:46.918Z,13.02
2022-09-24T18:14:16.977Z,12.92
2022-09-24T18:16:44.298Z,12.89
2022-09-24T18:19:12.446Z,12.78
2022-09-24T18:21:40.043Z,12.69
2022-09-24T18:24:07.210Z,12.65
2022-09-24T18:26:35.652Z,12.61
2022-09-24T18:29:13.727Z,12.58
2022-09-24T18:31:41.518Z,12.59
2022-09-24T18:34:09.307Z,12.58
2022-09-24T18:36:38.270Z,12.48
2022-09-24T18:39:06.778Z,12.54
2022-09-24T18:41:33.676Z,12.51
2022-09-24T18:44:00.752Z,12.45
2022-09-24T18:46:29.696Z,12.41
2022-09-24T18:48:57.403Z,12.42
2022-09-24T18:51:26.176Z,12.36
2022-09-24T18:54:05.019Z,12.23
2022-09-24T18:56:32.206Z,12.14
2022-09-24T18:59:07.290Z,12.12
2022-09-24T19:01:36.967Z,12.19
2022-09-24T19:04:03.969Z,12.10
2022-09-24T19:06:31.841Z,11.91
2022-09-24T19:08:58.559Z,11.83
2022-09-24T19:11:25.209Z,11.90
2022-09-24T19:13:54.069Z,11.83
2022-09-24T19:16:25.533Z,11.91
2022-09-24T19:18:53.651Z,11.87
2022-09-24T19:21:21.513Z,11.70
2022-09-24T19:23:49.925Z,11.54
2022-09-24T19:26:19.398Z,11.68
2022-09-24T19:28:46.995Z,11.69
2022-09-24T19:31:23.933Z,11.68
2022-09-24T19:33:51.981Z,11.66
2022-09-24T19:36:19.570Z,11.54
2022-09-24T19:38:47.580Z,11.58
2022-09-24T19:41:21.530Z,11.68
2022-09-24T19:43:50.925Z,11.71
2022-09-24T19:46:18.721Z,11.73
2022-09-24T19:48:47.581Z,11.73
2022-09-24T19:51:15.908Z,11.65
2022-09-24T19:53:43.246Z,11.57
2022-09-24T19:56:14.388Z,11.48
2022-09-24T19:58:41.351Z,11.57
2022-09-24T20:01:11.412Z,11.44
2022-09-24T20:03:41.813Z,11.36
2022-09-24T20:06:17.181Z,11.35
2022-09-24T20:08:44.386Z,11.40
2022-09-24T20:11:15.105Z,11.42
2022-09-24T20:13:47.617Z,11.32
2022-09-24T20:16:19.189Z,11.26
2022-09-24T20:18:47.443Z,11.27
2022-09-24T20:21:18.491Z,11.31
2022-09-24T20:23:46.551Z,11.22
2022-09-24T20:26:32.829Z,11.20
2022-09-24T20:28:59.557Z,11.07
2022-09-24T20:31:26.256Z,11.16
2022-09-24T20:33:52.945Z,11.17
2022-09-24T20:36:24.103Z,11.09
2022-09-24T20:38:52.116Z,11.05
2022-09-24T20:41:23.962Z,11.15
2022-09-24T20:43:51.542Z,11.23
2022-09-24T20:46:21.954Z,11.28
2022-09-24T20:48:48.733Z,11.26
2022-09-24T20:51:18.148Z,11.19
2022-09-24T20:53:45.858Z,11.17
2022-09-24T20:56:12.791Z,11.07
2022-09-24T20:58:40.200Z,11.02
2022-09-24T21:01:10.398Z,11.02
2022-09-24T21:03:46.240Z,11.10
2022-09-24T21:06:14.942Z,11.14
2022-09-24T21:08:43.785Z,11.13
2022-09-24T21:11:18.578Z,11.14
2022-09-24T21:13:56.807Z,11.13
2022-09-24T21:16:25.716Z,11.13
2022-09-24T21:18:54.461Z,11.01
2022-09-24T21:21:23.320Z,10.95
2022-09-24T21:23:51.485Z,10.97
2022-09-24T21:26:23.077Z,10.99
2022-09-24T21:28:52.996Z,10.90
2022-09-24T21:31:23.712Z,10.85
2022-09-24T21:33:54.948Z,10.81
2022-09-24T21:36:24.335Z,10.82
2022-09-24T21:39:00.023Z,10.82
2022-09-24T21:41:34.322Z,10.72
2022-09-24T21:44:01.304Z,10.65
2022-09-24T21:46:31.401Z,10.61
2022-09-24T21:48:59.134Z,10.52
2022-09-24T21:51:26.985Z,10.50
2022-09-24T21:54:01.972Z,10.56
2022-09-24T21:56:29.989Z,10.66
2022-09-24T21:58:57.080Z,10.59
2022-09-24T22:01:33.952Z,10.66
2022-09-24T22:04:07.128Z,10.51
2022-09-24T22:06:33.817Z,10.57
2022-09-24T22:09:05.764Z,10.55
2022-09-24T22:11:34.556Z,10.52
2022-09-24T22:14:02.491Z,10.54
2022-09-24T22:16:31.071Z,10.50
2022-09-24T22:18:58.314Z,10.52
2022-09-24T22:21:25.077Z,10.51
2022-09-24T22:23:51.629Z,10.49
2022-09-24T22:26:18.657Z,10.48
2022-09-24T22:28:45.632Z,10.48
2022-09-24T22:31:14.562Z,10.50
2022-09-24T22:33:59.922Z,10.53
2022-09-24T22:36:30.518Z,10.56
2022-09-24T22:38:58.113Z,10.55
2022-09-24T22:41:26.422Z,10.52
2022-09-24T22:43:53.089Z,10.54
2022-09-24T22:46:20.048Z,10.36
2022-09-24T22:48:47.623Z,10.49
2022-09-24T22:51:14.689Z,10.32
2022-09-24T22:53:41.780Z,10.20
2022-09-24T22:56:09.939Z,10.22
2022-09-24T22:58:37.642Z,10.18
2022-09-24T23:01:09.493Z,10.18
2022-09-24T23:03:36.927Z,10.02
2022-09-24T23:06:06.201Z,10.06
2022-09-24T23:08:34.701Z,10.00
2022-09-24T23:11:12.682Z,9.93
2022-09-24T23:13:41.841Z,9.91
2022-09-24T23:16:17.660Z,9.86
2022-09-24T23:18:46.633Z,9.78
2022-09-24T23:21:16.047Z,9.75
2022-09-24T23:23:43.671Z,9.75
2022-09-24T23:26:16.619Z,9.73
2022-09-24T23:28:44.743Z,9.72
2022-09-24T23:31:13.834Z,9.84
2022-09-24T23:33:42.328Z,9.94
2022-09-24T23:36:11.141Z,9.96
2022-09-24T23:38:38.341Z,9.91
2022-09-24T23:41:05.956Z,9.94
2022-09-24T23:43:33.367Z,9.85
2022-09-24T23:46:01.325Z,9.75
2022-09-24T23:48:28.462Z,9.66
2022-09-24T23:50:55.303Z,9.66
2022-09-24T23:53:22.310Z,9.54
2022-09-24T23:55:49.542Z,9.49
2022-09-24T23:58:18.432Z,9.50
